createdAt,value
2023-03-26T00:02:13.212Z,7.80
2023-03-26T00:04:42.630Z,7.70
2023-03-26T00:07:10.598Z,7.70
2023-03-26T00:09:38.011Z,7.60
2023-03-26T00:12:04.857Z,7.50
2023-03-26T00:14:32.602Z,7.50
2023-03-26T00:16:59.382Z,7.50
2023-03-26T00:19:26.158Z,7.60
2023-03-26T00:21:53.337Z,7.50
2023-03-26T00:24:20.129Z,7.60
2023-03-26T00:26:53.480Z,7.60
2023-03-26T00:29:20.654Z,7.60
2023-03-26T00:31:47.467Z,7.60
2023-03-26T00:34:15.972Z,7.70
2023-03-26T00:36:44.028Z,7.70
2023-03-26T00:39:10.894Z,7.70
2023-03-26T00:41:43.374Z,7.70
2023-03-26T00:44:10.543Z,7.60
2023-03-26T00:46:37.473Z,7.50
2023-03-26T00:49:04.991Z,7.50
2023-03-26T00:51:31.977Z,7.50
2023-03-26T00:53:58.702Z,7.50
2023-03-26T00:56:25.604Z,7.50
2023-03-26T00:58:52.342Z,7.50
2023-03-26T01:01:27.946Z,7.40
2023-03-26T01:04:07.409Z,7.50
2023-03-26T01:06:36.898Z,7.50
2023-03-26T01:09:16.211Z,7.40
2023-03-26T01:11:43.091Z,7.40
2023-03-26T01:14:18.990Z,7.40
2023-03-26T01:16:52.568Z,7.40
2023-03-26T01:19:29.756Z,7.40
2023-03-26T01:21:57.783Z,7.30
2023-03-26T01:24:24.602Z,7.40
2023-03-26T01:27:04.415Z,7.40
2023-03-26T01:29:33.072Z,7.30
2023-03-26T01:32:22.334Z,7.30
2023-03-26T01:34:59.109Z,7.40
2023-03-26T01:37:35.100Z,7.40
2023-03-26T01:40:14.292Z,7.50
2023-03-26T01:42:44.363Z,7.60
2023-03-26T01:45:16.829Z,7.70
2023-03-26T01:47:43.776Z,7.70
2023-03-26T01:50:11.185Z,7.70
2023-03-26T01:52:38.153Z,7.70
2023-03-26T01:55:05.234Z,7.70
2023-03-26T01:57:36.852Z,7.70
2023-03-26T02:00:18.636Z,7.60
2023-03-26T02:03:17.722Z,7.60
2023-03-26T02:05:55.164Z,7.60
2023-03-26T02:08:35.950Z,7.50
2023-03-26T02:11:13.139Z,7.50
2023-03-26T02:13:41.237Z,7.50
2023-03-26T02:16:09.802Z,7.60
2023-03-26T02:18:39.057Z,7.60
2023-03-26T02:21:10.979Z,7.60
2023-03-26T02:23:38.419Z,7.70
2023-03-26T02:26:09.475Z,7.70
2023-03-26T02:28:36.844Z,7.60
2023-03-26T02:31:04.269Z,7.70
2023-03-26T02:33:31.382Z,7.80
2023-03-26T02:36:04.639Z,7.80
2023-03-26T02:38:35.059Z,7.90
2023-03-26T02:41:02.502Z,8.00
2023-03-26T02:43:29.317Z,8.10
2023-03-26T02:45:56.472Z,8.10
2023-03-26T02:48:23.648Z,8.20
2023-03-26T02:50:54.144Z,8.20
2023-03-26T02:53:29.771Z,8.30
2023-03-26T02:55:57.524Z,8.30
2023-03-26T02:58:26.450Z,8.40
2023-03-26T03:00:55.163Z,8.40
2023-03-26T03:03:25.923Z,8.40
2023-03-26T03:05:53.616Z,8.40
2023-03-26T03:08:28.246Z,8.40
2023-03-26T03:10:59.646Z,8.30
2023-03-26T03:13:26.828Z,8.30
2023-03-26T03:15:54.072Z,8.30
2023-03-26T03:18:21.122Z,8.30
2023-03-26T03:20:48.009Z,8.30
2023-03-26T03:23:14.880Z,8.30
2023-03-26T03:25:41.854Z,8.30
2023-03-26T03:28:08.848Z,8.30
2023-03-26T03:30:35.923Z,8.30
2023-03-26T03:33:03.016Z,8.20
2023-03-26T03:35:30.263Z,8.00
2023-03-26T03:37:57.794Z,7.90
2023-03-26T03:40:24.819Z,7.70
2023-03-26T03:42:51.764Z,7.60
2023-03-26T03:45:18.805Z,7.70
2023-03-26T03:47:45.973Z,7.70
2023-03-26T03:50:12.776Z,7.70
2023-03-26T03:52:39.596Z,7.60
2023-03-26T03:55:06.691Z,7.60
2023-03-26T03:57:34.634Z,7.60
2023-03-26T04:00:01.654Z,7.60
2023-03-26T04:02:34.592Z,7.70
2023-03-26T04:05:02.614Z,7.70
2023-03-26T04:07:32.387Z,7.70
2023-03-26T04:10:06.014Z,7.70
2023-03-26T04:12:32.798Z,7.70
2023-03-26T04:14:59.924Z,7.70
2023-03-26T04:17:26.866Z,7.60
2023-03-26T04:19:55.072Z,7.60
2023-03-26T04:22:22.269Z,7.60
2023-03-26T04:24:49.822Z,7.60
2023-03-26T04:27:19.656Z,7.60
2023-03-26T04:29:49.676Z,7.70
2023-03-26T04:32:26.512Z,7.70
2023-03-26T04:34:53.765Z,7.60
2023-03-26T04:37:26.611Z,7.60
2023-03-26T04:39:55.107Z,7.60
2023-03-26T04:42:22.377Z,7.60
2023-03-26T04:44:50.914Z,7.60
2023-03-26T04:47:20.586Z,7.60
2023-03-26T04:49:48.635Z,7.70
2023-03-26T04:52:15.642Z,7.90
2023-03-26T04:54:44.491Z,8.00
2023-03-26T04:57:26.333Z,8.10
2023-03-26T04:59:53.233Z,8.30
2023-03-26T05:02:20.254Z,8.40
2023-03-26T05:04:47.033Z,8.50
2023-03-26T05:07:17.882Z,8.50
2023-03-26T05:09:44.657Z,8.50
2023-03-26T05:12:11.534Z,8.60
2023-03-26T05:14:38.322Z,8.60
2023-03-26T05:17:10.833Z,8.60
2023-03-26T05:19:39.028Z,8.70
2023-03-26T05:22:05.912Z,8.80
2023-03-26T05:24:32.733Z,8.90
2023-03-26T05:26:59.562Z,9.00
2023-03-26T05:29:27.021Z,9.10
2023-03-26T05:31:53.732Z,9.20
2023-03-26T05:34:20.878Z,9.30
2023-03-26T05:36:48.615Z,9.40
2023-03-26T05:39:15.458Z,9.50
2023-03-26T05:41:42.880Z,9.50
2023-03-26T05:44:09.670Z,9.80
2023-03-26T05:46:36.442Z,10.70
2023-03-26T05:49:03.301Z,11.20
2023-03-26T05:51:30.105Z,11.20
2023-03-26T05:53:56.888Z,11.00
2023-03-26T05:56:23.701Z,10.60
2023-03-26T05:58:51.984Z,10.30
2023-03-26T06:01:19.759Z,10.10
2023-03-26T06:03:47.289Z,10.00
2023-03-26T06:06:16.217Z,10.10
2023-03-26T06:08:43.941Z,10.20
2023-03-26T06:11:12.680Z,10.30
2023-03-26T06:13:39.952Z,11.00
2023-03-26T06:16:07.404Z,12.50
2023-03-26T06:18:34.203Z,14.00
2023-03-26T06:21:01.284Z,15.40
2023-03-26T06:23:28.088Z,16.20
2023-03-26T06:25:55.361Z,17.30
2023-03-26T06:28:22.210Z,18.50
2023-03-26T06:30:49.286Z,18.70
2023-03-26T06:33:16.068Z,18.80
2023-03-26T06:35:44.185Z,18.70
2023-03-26T06:38:11.243Z,18.70
2023-03-26T06:40:38.115Z,18.60
2023-03-26T06:43:08.557Z,18.60
2023-03-26T06:45:37.562Z,18.60
2023-03-26T06:48:04.956Z,18.50
2023-03-26T06:50:32.869Z,18.50
2023-03-26T06:52:59.905Z,18.80
2023-03-26T06:55:26.754Z,20.20
2023-03-26T06:57:54.231Z,21.30
2023-03-26T07:00:21.165Z,21.60
2023-03-26T07:02:48.220Z,22.60
2023-03-26T07:05:15.614Z,23.40
2023-03-26T07:07:46.230Z,23.80
2023-03-26T07:10:13.705Z,22.80
2023-03-26T07:12:42.479Z,21.80
2023-03-26T07:15:10.479Z,21.30
2023-03-26T07:17:37.642Z,21.60
2023-03-26T07:20:05.845Z,22.00
2023-03-26T07:22:32.958Z,23.00
2023-03-26T07:25:00.317Z,23.40
2023-03-26T07:27:56.203Z,23.40
2023-03-26T07:30:57.268Z,23.40
2023-03-26T07:33:29.510Z,23.60
2023-03-26T07:36:23.895Z,24.80
2023-03-26T07:39:08.904Z,25.90
2023-03-26T07:41:43.984Z,27.10
2023-03-26T07:44:49.667Z,28.10
2023-03-26T07:47:35.108Z,28.50
2023-03-26T07:50:03.015Z,28.30
2023-03-26T07:52:30.213Z,28.60
2023-03-26T07:54:57.105Z,29.20
2023-03-26T07:57:38.635Z,29.50
2023-03-26T08:00:14.226Z,28.70
2023-03-26T08:02:47.212Z,28.60
2023-03-26T08:05:19.763Z,28.90
2023-03-26T08:08:25.713Z,28.80
2023-03-26T08:11:10.527Z,29.30
2023-03-26T08:13:45.998Z,30.30
2023-03-26T08:16:19.382Z,30.50
2023-03-26T08:18:55.992Z,30.60
2023-03-26T08:21:45.152Z,30.60
2023-03-26T08:24:32.090Z,30.40
2023-03-26T08:27:13.442Z,31.00
2023-03-26T08:29:59.626Z,31.30
2023-03-26T08:32:26.556Z,30.70
2023-03-26T08:34:53.364Z,29.30
2023-03-26T08:37:20.212Z,27.70
2023-03-26T08:39:47.089Z,27.00
2023-03-26T08:42:20.354Z,26.00
2023-03-26T08:45:06.003Z,24.90
2023-03-26T08:48:03.875Z,24.00
2023-03-26T08:50:56.914Z,23.10
2023-03-26T08:53:35.964Z,22.60
2023-03-26T08:56:19.600Z,22.90
2023-03-26T08:59:13.879Z,24.00
2023-03-26T09:02:16.488Z,26.30
2023-03-26T09:05:17.102Z,28.00
2023-03-26T09:07:58.695Z,28.30
2023-03-26T09:10:25.461Z,28.90
2023-03-26T09:13:21.340Z,30.00
2023-03-26T09:16:06.694Z,31.50
2023-03-26T09:19:01.339Z,32.70
2023-03-26T09:21:32.644Z,32.50
2023-03-26T09:24:27.674Z,32.80
2023-03-26T09:27:26.555Z,33.30
2023-03-26T09:29:53.357Z,32.70
2023-03-26T09:32:58.080Z,32.70
2023-03-26T09:35:54.141Z,33.00
2023-03-26T09:38:24.128Z,32.90
2023-03-26T09:41:02.411Z,32.80
2023-03-26T09:43:54.448Z,33.10
2023-03-26T09:46:33.548Z,33.60
2023-03-26T09:49:37.763Z,33.40
2023-03-26T09:52:22.677Z,32.80
2023-03-26T09:55:22.749Z,32.30
2023-03-26T09:58:27.816Z,32.00
2023-03-26T10:01:05.928Z,31.50
2023-03-26T10:03:59.275Z,31.50
2023-03-26T10:06:34.915Z,32.20
2023-03-26T10:09:26.286Z,33.10
2023-03-26T10:12:09.229Z,33.90
2023-03-26T10:14:58.099Z,34.20
2023-03-26T10:17:33.669Z,33.60
2023-03-26T10:20:31.684Z,33.60
2023-03-26T10:23:23.119Z,33.40
2023-03-26T10:25:56.376Z,33.30
2023-03-26T10:28:26.410Z,33.50
2023-03-26T10:30:53.341Z,33.10
2023-03-26T10:33:43.368Z,33.40
2023-03-26T10:36:19.435Z,33.70
2023-03-26T10:38:52.110Z,33.50
2023-03-26T10:41:33.890Z,33.00
2023-03-26T10:44:08.812Z,32.10
2023-03-26T10:46:36.081Z,30.70
2023-03-26T10:49:16.785Z,30.00
2023-03-26T10:51:49.442Z,29.60
2023-03-26T10:54:25.972Z,29.20
2023-03-26T10:56:52.916Z,28.90
2023-03-26T10:59:19.801Z,28.30
2023-03-26T11:02:10.545Z,27.80
2023-03-26T11:05:09.463Z,27.30
2023-03-26T11:07:44.281Z,26.60
2023-03-26T11:10:16.531Z,25.90
2023-03-26T11:12:58.716Z,25.70
2023-03-26T11:15:33.476Z,25.50
2023-03-26T11:18:20.753Z,25.20
2023-03-26T11:21:19.282Z,25.10
2023-03-26T11:24:04.501Z,24.90
2023-03-26T11:26:52.889Z,24.80
2023-03-26T11:29:38.091Z,24.60
2023-03-26T11:32:24.104Z,24.50
2023-03-26T11:35:41.009Z,24.60
2023-03-26T11:38:17.291Z,24.50
2023-03-26T11:40:48.322Z,24.40
2023-03-26T11:43:17.203Z,24.30
2023-03-26T11:45:46.131Z,24.40
2023-03-26T11:48:17.108Z,24.40
2023-03-26T11:50:56.610Z,24.40
2023-03-26T11:53:26.252Z,24.40
2023-03-26T11:56:09.965Z,24.50
2023-03-26T11:59:01.543Z,24.60
2023-03-26T12:01:31.089Z,24.70
2023-03-26T12:04:14.698Z,24.70
2023-03-26T12:07:25.138Z,24.70
2023-03-26T12:10:18.352Z,24.70
2023-03-26T12:12:46.572Z,24.60
2023-03-26T12:15:20.275Z,24.40
2023-03-26T12:17:48.391Z,24.20
2023-03-26T12:20:24.905Z,24.10
2023-03-26T12:22:53.167Z,24.00
2023-03-26T12:25:21.616Z,24.00
2023-03-26T12:27:52.858Z,24.10
2023-03-26T12:30:22.148Z,23.90
2023-03-26T12:32:50.087Z,23.70
2023-03-26T12:35:26.884Z,23.40
2023-03-26T12:37:54.667Z,23.20
2023-03-26T12:40:32.605Z,23.10
2023-03-26T12:44:46.700Z,23.00
2023-03-26T12:47:55.076Z,23.00
2023-03-26T12:48:41.238Z,23.30
2023-03-26T12:51:20.314Z,23.40
2023-03-26T12:54:03.211Z,23.50
2023-03-26T12:57:11.911Z,23.70
2023-03-26T13:00:01.736Z,23.90
2023-03-26T13:02:53.663Z,24.10
2023-03-26T13:05:26.553Z,24.30
2023-03-26T13:08:17.036Z,24.40
2023-03-26T13:11:05.251Z,24.40
2023-03-26T13:13:40.970Z,24.20
2023-03-26T13:16:19.185Z,24.10
2023-03-26T13:19:18.006Z,24.00
2023-03-26T13:22:09.667Z,24.10
2023-03-26T13:24:58.460Z,24.30
2023-03-26T13:27:44.189Z,24.40
2023-03-26T13:30:28.704Z,24.40
2023-03-26T13:32:58.859Z,24.30
2023-03-26T13:35:31.875Z,24.30
2023-03-26T13:38:01.856Z,24.40
2023-03-26T13:40:50.195Z,24.10
2023-03-26T13:43:49.195Z,23.70
2023-03-26T13:46:35.518Z,23.70
2023-03-26T13:49:08.051Z,23.80
2023-03-26T13:51:49.810Z,23.90
2023-03-26T13:54:24.160Z,24.00
2023-03-26T13:56:55.193Z,24.10
2023-03-26T13:59:55.778Z,24.10
2023-03-26T14:02:38.402Z,24.00
2023-03-26T14:05:24.204Z,23.90
2023-03-26T14:07:58.382Z,23.80
2023-03-26T14:10:28.879Z,23.80
2023-03-26T14:13:15.333Z,23.80
2023-03-26T14:15:55.877Z,23.80
2023-03-26T14:18:22.548Z,23.80
2023-03-26T14:20:58.542Z,23.80
2023-03-26T14:23:34.113Z,23.60
2023-03-26T14:26:01.172Z,23.50
2023-03-26T14:28:34.051Z,23.40
2023-03-26T14:31:32.613Z,23.40
2023-03-26T14:34:23.566Z,23.30
2023-03-26T14:37:27.215Z,23.20
2023-03-26T14:40:14.951Z,23.10
2023-03-26T14:42:46.652Z,23.00
2023-03-26T14:45:34.790Z,22.90
2023-03-26T14:48:22.628Z,22.80
2023-03-26T14:51:33.614Z,22.80
2023-03-26T14:54:11.966Z,22.70
2023-03-26T14:57:00.930Z,22.60
2023-03-26T15:00:02.705Z,22.60
2023-03-26T15:03:00.545Z,22.50
2023-03-26T15:05:46.611Z,22.50
2023-03-26T15:08:34.243Z,22.40
2023-03-26T15:11:10.714Z,22.20
2023-03-26T15:13:59.624Z,22.10
2023-03-26T15:16:47.956Z,22.00
2023-03-26T15:19:41.294Z,21.90
2023-03-26T15:22:17.165Z,21.90
2023-03-26T15:25:16.160Z,21.80
2023-03-26T15:28:08.206Z,21.80
2023-03-26T15:31:10.754Z,21.80
2023-03-26T15:33:57.203Z,21.80
2023-03-26T15:36:41.088Z,21.70
2023-03-26T15:39:19.751Z,21.50
2023-03-26T15:42:04.112Z,21.30
2023-03-26T15:44:53.128Z,21.20
2023-03-26T15:47:42.689Z,21.00
2023-03-26T15:50:44.433Z,20.90
2023-03-26T15:53:58.701Z,20.90
2023-03-26T15:56:49.089Z,20.80
2023-03-26T16:00:00.697Z,20.80
2023-03-26T16:02:40.252Z,20.70
2023-03-26T16:05:29.122Z,20.80
2023-03-26T16:08:11.301Z,20.70
2023-03-26T16:10:47.185Z,20.60
2023-03-26T16:13:17.628Z,20.50
2023-03-26T16:15:57.089Z,20.40
2023-03-26T16:18:31.560Z,20.30
2023-03-26T16:21:32.369Z,20.20
2023-03-26T16:24:02.550Z,20.10
2023-03-26T16:26:44.634Z,19.90
2023-03-26T16:29:14.477Z,19.90
2023-03-26T16:32:10.935Z,19.80
2023-03-26T16:35:18.413Z,19.80
2023-03-26T16:37:50.608Z,19.70
2023-03-26T16:40:17.496Z,19.70
2023-03-26T16:43:18.350Z,19.70
2023-03-26T16:46:20.674Z,19.70
2023-03-26T16:49:10.761Z,19.60
2023-03-26T16:52:12.961Z,19.50
2023-03-26T16:54:53.531Z,19.50
2023-03-26T16:57:28.481Z,19.40
2023-03-26T17:00:08.233Z,19.40
2023-03-26T17:03:00.807Z,19.30
2023-03-26T17:05:41.909Z,19.20
2023-03-26T17:08:19.251Z,19.10
2023-03-26T17:11:36.269Z,19.00
2023-03-26T17:14:21.050Z,18.90
2023-03-26T17:17:03.093Z,18.70
2023-03-26T17:19:55.303Z,18.60
2023-03-26T17:22:56.307Z,18.50
2023-03-26T17:25:52.058Z,18.40
2023-03-26T17:28:24.972Z,18.30
2023-03-26T17:31:01.954Z,18.30
2023-03-26T17:33:30.960Z,18.20
2023-03-26T17:36:13.074Z,18.10
2023-03-26T17:38:39.894Z,18.10
2023-03-26T17:41:12.294Z,18.00
2023-03-26T17:43:45.659Z,18.00
2023-03-26T17:46:38.038Z,18.00
2023-03-26T17:49:26.979Z,17.80
2023-03-26T17:51:59.550Z,17.80
2023-03-26T17:54:31.607Z,17.80
2023-03-26T17:57:02.561Z,17.80
2023-03-26T17:59:29.404Z,17.80
2023-03-26T18:02:00.948Z,17.80
2023-03-26T18:04:38.071Z,17.80
2023-03-26T18:07:35.537Z,17.70
2023-03-26T18:10:43.625Z,17.70
2023-03-26T18:13:32.030Z,17.70
2023-03-26T18:16:16.315Z,17.70
2023-03-26T18:18:50.214Z,17.70
2023-03-26T18:21:29.334Z,17.70
2023-03-26T18:23:59.936Z,17.70
2023-03-26T18:26:37.928Z,17.70
2023-03-26T18:29:16.026Z,17.70
2023-03-26T18:31:48.518Z,17.60
2023-03-26T18:34:19.016Z,17.70
2023-03-26T18:36:47.187Z,17.60
2023-03-26T18:39:14.023Z,17.50
2023-03-26T18:41:42.027Z,17.60
2023-03-26T18:44:14.714Z,17.50
2023-03-26T18:46:41.977Z,17.50
2023-03-26T18:49:12.037Z,17.40
2023-03-26T18:51:50.106Z,17.40
2023-03-26T18:54:21.576Z,17.40
2023-03-26T18:56:48.525Z,17.30
2023-03-26T18:59:27.972Z,17.40
2023-03-26T19:02:07.289Z,17.40
2023-03-26T19:04:34.913Z,17.40
2023-03-26T19:07:01.686Z,17.40
2023-03-26T19:09:32.220Z,17.40
2023-03-26T19:12:08.442Z,17.40
2023-03-26T19:14:56.261Z,17.40
2023-03-26T19:17:24.402Z,17.40
2023-03-26T19:19:51.393Z,17.40
2023-03-26T19:22:19.135Z,17.30
2023-03-26T19:24:46.273Z,17.40
2023-03-26T19:27:13.169Z,17.40
2023-03-26T19:29:40.023Z,17.40
2023-03-26T19:32:27.725Z,17.40
2023-03-26T19:34:54.663Z,17.40
2023-03-26T19:37:26.471Z,17.40
2023-03-26T19:39:54.421Z,17.40
2023-03-26T19:42:26.883Z,17.40
2023-03-26T19:45:30.957Z,17.40
2023-03-26T19:48:11.631Z,17.40
2023-03-26T19:50:42.468Z,17.40
2023-03-26T19:53:21.851Z,17.40
2023-03-26T19:55:58.814Z,17.30
2023-03-26T19:58:26.834Z,17.30
2023-03-26T20:00:56.275Z,17.30
2023-03-26T20:03:44.444Z,17.30
2023-03-26T20:06:12.955Z,17.20
2023-03-26T20:08:40.717Z,17.20
2023-03-26T20:11:14.473Z,17.20
2023-03-26T20:13:41.401Z,17.20
2023-03-26T20:16:26.055Z,17.10
2023-03-26T20:18:53.695Z,17.20
2023-03-26T20:21:20.530Z,17.20
2023-03-26T20:23:47.966Z,17.30
2023-03-26T20:26:15.516Z,17.30
2023-03-26T20:28:48.095Z,17.30
2023-03-26T20:31:21.886Z,17.20
2023-03-26T20:33:49.767Z,17.30
2023-03-26T20:36:33.819Z,17.20
2023-03-26T20:39:08.180Z,17.20
2023-03-26T20:41:35.855Z,17.30
2023-03-26T20:44:04.884Z,17.30
2023-03-26T20:46:33.118Z,17.30
2023-03-26T20:49:00.121Z,17.30
2023-03-26T20:51:28.262Z,17.20
2023-03-26T20:53:55.822Z,17.30
2023-03-26T20:56:22.686Z,17.30
2023-03-26T20:58:54.772Z,17.20
2023-03-26T21:01:27.900Z,17.20
2023-03-26T21:03:54.837Z,17.20
2023-03-26T21:06:21.674Z,17.20
2023-03-26T21:08:48.568Z,17.20
2023-03-26T21:11:27.314Z,17.20
2023-03-26T21:14:15.183Z,17.20
2023-03-26T21:16:42.181Z,17.10
2023-03-26T21:19:10.325Z,17.00
2023-03-26T21:21:57.585Z,17.00
2023-03-26T21:24:43.376Z,16.90
2023-03-26T21:27:22.918Z,16.80
2023-03-26T21:29:49.954Z,16.80
2023-03-26T21:32:17.005Z,16.80
2023-03-26T21:34:55.593Z,16.80
2023-03-26T21:37:25.765Z,16.80
2023-03-26T21:39:52.881Z,16.80
2023-03-26T21:42:19.905Z,16.80
2023-03-26T21:44:46.935Z,16.70
2023-03-26T21:47:14.159Z,16.70
2023-03-26T21:49:41.292Z,16.60
2023-03-26T21:52:16.026Z,16.60
2023-03-26T21:54:43.410Z,16.60
2023-03-26T21:57:57.637Z,16.60
2023-03-26T22:00:30.804Z,16.60
2023-03-26T22:03:17.256Z,16.70
2023-03-26T22:06:12.805Z,16.70
2023-03-26T22:08:40.731Z,16.70
2023-03-26T22:11:08.618Z,16.70
2023-03-26T22:13:35.811Z,16.70
2023-03-26T22:16:02.627Z,16.70
2023-03-26T22:18:30.062Z,16.70
2023-03-26T22:20:57.929Z,16.70
2023-03-26T22:23:24.897Z,16.60
2023-03-26T22:25:52.174Z,16.60
2023-03-26T22:28:19.324Z,16.70
2023-03-26T22:30:46.604Z,16.60
2023-03-26T22:33:14.448Z,16.60
2023-03-26T22:35:44.667Z,16.60
2023-03-26T22:38:11.845Z,16.50
2023-03-26T22:40:39.049Z,16.50
2023-03-26T22:43:05.886Z,16.50
2023-03-26T22:45:32.662Z,16.40
2023-03-26T22:48:03.875Z,16.40
2023-03-26T22:50:31.651Z,16.40
2023-03-26T22:52:58.579Z,16.40
2023-03-26T22:55:28.791Z,16.40
2023-03-26T22:57:57.004Z,16.40
2023-03-26T23:00:23.941Z,16.40
2023-03-26T23:02:50.716Z,16.40
2023-03-26T23:05:17.796Z,16.40
2023-03-26T23:07:46.052Z,16.40
2023-03-26T23:10:13.066Z,16.30
2023-03-26T23:12:40.186Z,16.40
2023-03-26T23:15:08.008Z,16.50
2023-03-26T23:17:37.842Z,16.40
2023-03-26T23:20:17.259Z,16.40
2023-03-26T23:22:44.357Z,16.40
2023-03-26T23:25:11.455Z,16.30
2023-03-26T23:27:39.979Z,16.20
2023-03-26T23:30:07.435Z,16.20
2023-03-26T23:32:38.192Z,16.30
2023-03-26T23:35:06.096Z,16.30
2023-03-26T23:37:34.963Z,16.30
2023-03-26T23:40:02.060Z,16.30
2023-03-26T23:42:29.421Z,16.40
2023-03-26T23:44:57.181Z,16.40
2023-03-26T23:47:24.225Z,16.40
2023-03-26T23:49:51.063Z,16.40
2023-03-26T23:52:18.019Z,16.40
2023-03-26T23:54:45.499Z,16.50
2023-03-26T23:57:12.342Z,16.40
2023-03-26T23:59:41.462Z,16.50
